sensor_id;sensor_type;location;lat;lon;timestamp;P1;durP1;ratioP1;P2;durP2;ratioP2
6928;SDS011;3504;52.616;13.238;2023-11-21T00:04:06;14.50;;;8.73;;
6928;SDS011;3504;52.616;13.238;2023-11-21T00:09:07;11.70;;;7.20;;
6928;SDS011;3504;52.616;13.238;2023-11-21T00:14:08;12.23;;;7.67;;
6928;SDS011;3504;52.616;13.238;2023-11-21T00:19:09;11.37;;;7.43;;
6928;SDS011;3504;52.616;13.238;2023-11-21T00:24:09;9.57;;;6.80;;
6928;SDS011;3504;52.616;13.238;2023-11-21T00:29:13;9.37;;;6.83;;
6928;SDS011;3504;52.616;13.238;2023-11-21T00:34:14;8.77;;;6.80;;
6928;SDS011;3504;52.616;13.238;2023-11-21T00:39:14;12.67;;;7.77;;
6928;SDS011;3504;52.616;13.238;2023-11-21T00:44:15;13.10;;;8.33;;
6928;SDS011;3504;52.616;13.238;2023-11-21T00:49:16;11.67;;;8.27;;
6928;SDS011;3504;52.616;13.238;2023-11-21T00:54:16;11.30;;;8.60;;
6928;SDS011;3504;52.616;13.238;2023-11-21T00:59:17;13.13;;;8.67;;
6928;SDS011;3504;52.616;13.238;2023-11-21T01:04:17;12.97;;;9.07;;
6928;SDS011;3504;52.616;13.238;2023-11-21T01:09:18;18.10;;;9.90;;
6928;SDS011;3504;52.616;13.238;2023-11-21T01:14:19;14.23;;;9.63;;
6928;SDS011;3504;52.616;13.238;2023-11-21T01:19:20;14.37;;;9.50;;
6928;SDS011;3504;52.616;13.238;2023-11-21T01:24:20;14.17;;;9.57;;
6928;SDS011;3504;52.616;13.238;2023-11-21T01:29:20;11.60;;;9.07;;
6928;SDS011;3504;52.616;13.238;2023-11-21T01:34:21;11.73;;;8.87;;
6928;SDS011;3504;52.616;13.238;2023-11-21T01:39:21;12.33;;;8.93;;
6928;SDS011;3504;52.616;13.238;2023-11-21T01:44:24;11.73;;;8.27;;
6928;SDS011;3504;52.616;13.238;2023-11-21T01:49:25;11.90;;;9.50;;
6928;SDS011;3504;52.616;13.238;2023-11-21T01:54:26;13.70;;;9.37;;
6928;SDS011;3504;52.616;13.238;2023-11-21T01:59:26;12.70;;;9.37;;
6928;SDS011;3504;52.616;13.238;2023-11-21T02:04:31;11.23;;;9.43;;
6928;SDS011;3504;52.616;13.238;2023-11-21T02:09:33;13.93;;;10.37;;
6928;SDS011;3504;52.616;13.238;2023-11-21T02:14:34;12.70;;;10.00;;
6928;SDS011;3504;52.616;13.238;2023-11-21T02:19:34;14.00;;;9.73;;
6928;SDS011;3504;52.616;13.238;2023-11-21T02:24:35;14.57;;;10.63;;
6928;SDS011;3504;52.616;13.238;2023-11-21T02:29:37;13.30;;;10.07;;
6928;SDS011;3504;52.616;13.238;2023-11-21T02:34:38;12.20;;;9.37;;
6928;SDS011;3504;52.616;13.238;2023-11-21T02:39:39;14.90;;;9.47;;
6928;SDS011;3504;52.616;13.238;2023-11-21T02:44:39;14.93;;;10.43;;
6928;SDS011;3504;52.616;13.238;2023-11-21T02:49:40;13.37;;;9.43;;
6928;SDS011;3504;52.616;13.238;2023-11-21T02:54:40;12.40;;;9.10;;
6928;SDS011;3504;52.616;13.238;2023-11-21T02:59:41;13.97;;;10.10;;
6928;SDS011;3504;52.616;13.238;2023-11-21T03:04:41;14.87;;;9.83;;
6928;SDS011;3504;52.616;13.238;2023-11-21T03:09:42;14.60;;;10.03;;
6928;SDS011;3504;52.616;13.238;2023-11-21T03:14:43;14.13;;;9.67;;
6928;SDS011;3504;52.616;13.238;2023-11-21T03:19:43;16.97;;;10.80;;
6928;SDS011;3504;52.616;13.238;2023-11-21T03:24:44;14.90;;;10.53;;
6928;SDS011;3504;52.616;13.238;2023-11-21T03:29:44;15.53;;;11.17;;
6928;SDS011;3504;52.616;13.238;2023-11-21T03:34:53;16.40;;;10.63;;
6928;SDS011;3504;52.616;13.238;2023-11-21T03:39:57;17.67;;;11.13;;
6928;SDS011;3504;52.616;13.238;2023-11-21T03:44:58;16.40;;;11.43;;
6928;SDS011;3504;52.616;13.238;2023-11-21T03:49:58;20.33;;;12.60;;
6928;SDS011;3504;52.616;13.238;2023-11-21T03:54:59;16.63;;;11.43;;
6928;SDS011;3504;52.616;13.238;2023-11-21T04:00:00;17.70;;;12.33;;
6928;SDS011;3504;52.616;13.238;2023-11-21T04:05:00;19.90;;;12.30;;
6928;SDS011;3504;52.616;13.238;2023-11-21T04:10:01;17.23;;;11.83;;
6928;SDS011;3504;52.616;13.238;2023-11-21T04:15:02;18.20;;;12.00;;
6928;SDS011;3504;52.616;13.238;2023-11-21T04:20:04;19.07;;;12.90;;
6928;SDS011;3504;52.616;13.238;2023-11-21T04:25:09;18.67;;;12.37;;
6928;SDS011;3504;52.616;13.238;2023-11-21T04:30:14;18.33;;;11.57;;
6928;SDS011;3504;52.616;13.238;2023-11-21T04:35:15;17.53;;;11.20;;
6928;SDS011;3504;52.616;13.238;2023-11-21T04:40:15;17.23;;;11.80;;
6928;SDS011;3504;52.616;13.238;2023-11-21T04:45:16;16.67;;;11.83;;
6928;SDS011;3504;52.616;13.238;2023-11-21T04:50:16;16.60;;;11.33;;
6928;SDS011;3504;52.616;13.238;2023-11-21T04:55:17;15.23;;;10.80;;
6928;SDS011;3504;52.616;13.238;2023-11-21T05:00:17;18.63;;;11.33;;
6928;SDS011;3504;52.616;13.238;2023-11-21T05:05:18;15.37;;;10.00;;
6928;SDS011;3504;52.616;13.238;2023-11-21T05:10:18;14.43;;;10.33;;
6928;SDS011;3504;52.616;13.238;2023-11-21T05:15:19;15.97;;;10.30;;
6928;SDS011;3504;52.616;13.238;2023-11-21T05:20:21;14.03;;;9.27;;
6928;SDS011;3504;52.616;13.238;2023-11-21T05:25:21;15.43;;;10.10;;
6928;SDS011;3504;52.616;13.238;2023-11-21T05:30:22;15.37;;;9.43;;
6928;SDS011;3504;52.616;13.238;2023-11-21T05:35:22;15.03;;;10.10;;
6928;SDS011;3504;52.616;13.238;2023-11-21T05:40:23;15.53;;;9.37;;
6928;SDS011;3504;52.616;13.238;2023-11-21T05:45:23;16.77;;;10.63;;
6928;SDS011;3504;52.616;13.238;2023-11-21T05:50:24;15.70;;;10.87;;
6928;SDS011;3504;52.616;13.238;2023-11-21T05:55:24;25.87;;;20.57;;
6928;SDS011;3504;52.616;13.238;2023-11-21T06:00:25;19.17;;;12.27;;
6928;SDS011;3504;52.616;13.238;2023-11-21T06:05:27;16.33;;;11.77;;
6928;SDS011;3504;52.616;13.238;2023-11-21T06:10:32;17.37;;;10.70;;
6928;SDS011;3504;52.616;13.238;2023-11-21T06:15:32;14.77;;;11.50;;
6928;SDS011;3504;52.616;13.238;2023-11-21T06:20:33;14.30;;;10.60;;
6928;SDS011;3504;52.616;13.238;2023-11-21T06:25:33;15.03;;;8.77;;
6928;SDS011;3504;52.616;13.238;2023-11-21T06:30:36;11.40;;;7.73;;
6928;SDS011;3504;52.616;13.238;2023-11-21T06:35:36;10.77;;;7.37;;
6928;SDS011;3504;52.616;13.238;2023-11-21T06:40:37;9.77;;;6.40;;
6928;SDS011;3504;52.616;13.238;2023-11-21T06:45:38;10.80;;;7.10;;
6928;SDS011;3504;52.616;13.238;2023-11-21T06:50:38;8.73;;;6.27;;
6928;SDS011;3504;52.616;13.238;2023-11-21T06:55:39;7.70;;;6.00;;
6928;SDS011;3504;52.616;13.238;2023-11-21T07:00:39;8.97;;;5.60;;
6928;SDS011;3504;52.616;13.238;2023-11-21T07:05:40;8.27;;;6.10;;
6928;SDS011;3504;52.616;13.238;2023-11-21T07:10:40;8.60;;;5.83;;
6928;SDS011;3504;52.616;13.238;2023-11-21T07:15:41;8.83;;;6.10;;
6928;SDS011;3504;52.616;13.238;2023-11-21T07:20:42;9.07;;;6.63;;
6928;SDS011;3504;52.616;13.238;2023-11-21T07:25:42;9.07;;;6.80;;
6928;SDS011;3504;52.616;13.238;2023-11-21T07:30:43;8.53;;;6.03;;
6928;SDS011;3504;52.616;13.238;2023-11-21T07:35:43;8.80;;;6.13;;
6928;SDS011;3504;52.616;13.238;2023-11-21T07:40:44;9.27;;;6.30;;
6928;SDS011;3504;52.616;13.238;2023-11-21T07:45:44;8.23;;;6.57;;
6928;SDS011;3504;52.616;13.238;2023-11-21T07:50:45;9.33;;;7.00;;
6928;SDS011;3504;52.616;13.238;2023-11-21T07:55:47;8.20;;;6.53;;
6928;SDS011;3504;52.616;13.238;2023-11-21T08:00:48;10.00;;;7.40;;
6928;SDS011;3504;52.616;13.238;2023-11-21T08:05:50;10.40;;;7.43;;
6928;SDS011;3504;52.616;13.238;2023-11-21T08:10:50;11.93;;;6.83;;
6928;SDS011;3504;52.616;13.238;2023-11-21T08:15:57;8.30;;;5.97;;
6928;SDS011;3504;52.616;13.238;2023-11-21T08:21:02;7.83;;;5.97;;
6928;SDS011;3504;52.616;13.238;2023-11-21T08:26:04;8.20;;;5.40;;
6928;SDS011;3504;52.616;13.238;2023-11-21T08:31:05;7.63;;;5.37;;
6928;SDS011;3504;52.616;13.238;2023-11-21T08:36:09;6.90;;;5.60;;
6928;SDS011;3504;52.616;13.238;2023-11-21T08:41:11;5.77;;;4.63;;
6928;SDS011;3504;52.616;13.238;2023-11-21T08:46:14;6.87;;;4.90;;
6928;SDS011;3504;52.616;13.238;2023-11-21T08:51:15;5.53;;;4.53;;
6928;SDS011;3504;52.616;13.238;2023-11-21T08:56:15;6.87;;;5.47;;
6928;SDS011;3504;52.616;13.238;2023-11-21T09:01:16;6.47;;;4.80;;
6928;SDS011;3504;52.616;13.238;2023-11-21T09:06:17;5.70;;;4.73;;
6928;SDS011;3504;52.616;13.238;2023-11-21T09:11:17;5.33;;;4.47;;
6928;SDS011;3504;52.616;13.238;2023-11-21T09:16:19;7.50;;;5.00;;
6928;SDS011;3504;52.616;13.238;2023-11-21T09:21:19;6.13;;;4.63;;
6928;SDS011;3504;52.616;13.238;2023-11-21T09:26:20;5.87;;;4.43;;
6928;SDS011;3504;52.616;13.238;2023-11-21T09:31:20;7.53;;;4.27;;
6928;SDS011;3504;52.616;13.238;2023-11-21T09:36:22;5.23;;;4.53;;
6928;SDS011;3504;52.616;13.238;2023-11-21T09:41:33;5.03;;;3.93;;
6928;SDS011;3504;52.616;13.238;2023-11-21T09:46:44;6.20;;;4.53;;
6928;SDS011;3504;52.616;13.238;2023-11-21T09:51:51;6.40;;;4.87;;
6928;SDS011;3504;52.616;13.238;2023-11-21T09:56:59;6.13;;;4.40;;
6928;SDS011;3504;52.616;13.238;2023-11-21T10:02:00;6.37;;;5.13;;
6928;SDS011;3504;52.616;13.238;2023-11-21T10:07:02;7.33;;;5.43;;
6928;SDS011;3504;52.616;13.238;2023-11-21T10:12:04;8.03;;;5.67;;
6928;SDS011;3504;52.616;13.238;2023-11-21T10:17:12;7.13;;;5.00;;
6928;SDS011;3504;52.616;13.238;2023-11-21T10:22:16;7.57;;;5.10;;
6928;SDS011;3504;52.616;13.238;2023-11-21T10:27:19;8.83;;;5.50;;
6928;SDS011;3504;52.616;13.238;2023-11-21T10:32:20;7.00;;;4.87;;
6928;SDS011;3504;52.616;13.238;2023-11-21T10:37:20;9.60;;;5.43;;
6928;SDS011;3504;52.616;13.238;2023-11-21T10:42:21;8.50;;;5.93;;
6928;SDS011;3504;52.616;13.238;2023-11-21T10:47:24;8.73;;;5.73;;
6928;SDS011;3504;52.616;13.238;2023-11-21T10:52:26;8.73;;;5.80;;
6928;SDS011;3504;52.616;13.238;2023-11-21T10:57:27;7.20;;;5.50;;
6928;SDS011;3504;52.616;13.238;2023-11-21T11:02:27;7.67;;;5.17;;
6928;SDS011;3504;52.616;13.238;2023-11-21T11:07:32;8.30;;;5.47;;
6928;SDS011;3504;52.616;13.238;2023-11-21T11:12:35;7.47;;;5.30;;
6928;SDS011;3504;52.616;13.238;2023-11-21T11:17:39;8.27;;;5.00;;
6928;SDS011;3504;52.616;13.238;2023-11-21T11:22:41;9.30;;;5.67;;
6928;SDS011;3504;52.616;13.238;2023-11-21T11:27:54;9.40;;;5.80;;
6928;SDS011;3504;52.616;13.238;2023-11-21T11:33:10;9.90;;;5.70;;
6928;SDS011;3504;52.616;13.238;2023-11-21T11:38:32;10.57;;;6.07;;
6928;SDS011;3504;52.616;13.238;2023-11-21T11:43:33;9.30;;;6.40;;
6928;SDS011;3504;52.616;13.238;2023-11-21T11:48:43;9.07;;;6.00;;
6928;SDS011;3504;52.616;13.238;2023-11-21T11:53:46;10.17;;;6.30;;
6928;SDS011;3504;52.616;13.238;2023-11-21T11:58:48;14.00;;;7.10;;
6928;SDS011;3504;52.616;13.238;2023-11-21T12:09:20;11.90;;;7.10;;
6928;SDS011;3504;52.616;13.238;2023-11-21T12:14:23;13.70;;;8.10;;
6928;SDS011;3504;52.616;13.238;2023-11-21T12:19:24;13.90;;;8.17;;
6928;SDS011;3504;52.616;13.238;2023-11-21T12:24:25;13.80;;;8.13;;
6928;SDS011;3504;52.616;13.238;2023-11-21T12:29:26;13.93;;;9.20;;
6928;SDS011;3504;52.616;13.238;2023-11-21T12:34:29;13.17;;;8.07;;
6928;SDS011;3504;52.616;13.238;2023-11-21T12:39:31;11.77;;;8.00;;
6928;SDS011;3504;52.616;13.238;2023-11-21T12:44:31;13.27;;;8.57;;
6928;SDS011;3504;52.616;13.238;2023-11-21T12:49:32;12.00;;;8.87;;
6928;SDS011;3504;52.616;13.238;2023-11-21T12:54:34;12.30;;;8.33;;
6928;SDS011;3504;52.616;13.238;2023-11-21T12:59:35;14.23;;;8.60;;
6928;SDS011;3504;52.616;13.238;2023-11-21T13:04:38;12.50;;;9.33;;
6928;SDS011;3504;52.616;13.238;2023-11-21T13:09:39;16.80;;;10.67;;
6928;SDS011;3504;52.616;13.238;2023-11-21T13:14:40;17.23;;;11.50;;
6928;SDS011;3504;52.616;13.238;2023-11-21T13:19:40;19.63;;;12.53;;
6928;SDS011;3504;52.616;13.238;2023-11-21T13:24:42;20.63;;;12.30;;
6928;SDS011;3504;52.616;13.238;2023-11-21T13:29:42;21.23;;;13.07;;
6928;SDS011;3504;52.616;13.238;2023-11-21T13:34:44;20.33;;;13.50;;
6928;SDS011;3504;52.616;13.238;2023-11-21T13:39:47;23.10;;;14.40;;
6928;SDS011;3504;52.616;13.238;2023-11-21T13:44:49;21.80;;;12.57;;
6928;SDS011;3504;52.616;13.238;2023-11-21T13:49:56;22.03;;;12.83;;
6928;SDS011;3504;52.616;13.238;2023-11-21T13:54:56;22.77;;;12.80;;
6928;SDS011;3504;52.616;13.238;2023-11-21T13:59:56;23.10;;;13.70;;
6928;SDS011;3504;52.616;13.238;2023-11-21T14:04:58;30.47;;;17.07;;
6928;SDS011;3504;52.616;13.238;2023-11-21T14:10:03;33.27;;;18.17;;
6928;SDS011;3504;52.616;13.238;2023-11-21T14:15:13;39.47;;;21.00;;
6928;SDS011;3504;52.616;13.238;2023-11-21T14:20:17;39.03;;;21.53;;
6928;SDS011;3504;52.616;13.238;2023-11-21T14:25:20;37.67;;;20.50;;
6928;SDS011;3504;52.616;13.238;2023-11-21T14:30:22;39.50;;;22.53;;
6928;SDS011;3504;52.616;13.238;2023-11-21T14:35:23;27.57;;;16.77;;
6928;SDS011;3504;52.616;13.238;2023-11-21T14:40:23;25.33;;;15.53;;
6928;SDS011;3504;52.616;13.238;2023-11-21T14:45:24;22.80;;;15.40;;
6928;SDS011;3504;52.616;13.238;2023-11-21T14:50:26;16.07;;;11.10;;
6928;SDS011;3504;52.616;13.238;2023-11-21T14:55:43;21.50;;;12.93;;
6928;SDS011;3504;52.616;13.238;2023-11-21T15:00:50;17.37;;;11.60;;
6928;SDS011;3504;52.616;13.238;2023-11-21T15:05:52;21.80;;;13.67;;
6928;SDS011;3504;52.616;13.238;2023-11-21T15:10:53;20.47;;;13.90;;
6928;SDS011;3504;52.616;13.238;2023-11-21T15:15:54;20.10;;;14.07;;
6928;SDS011;3504;52.616;13.238;2023-11-21T15:20:55;23.67;;;14.33;;
6928;SDS011;3504;52.616;13.238;2023-11-21T15:25:55;22.67;;;14.83;;
6928;SDS011;3504;52.616;13.238;2023-11-21T15:30:56;23.07;;;14.67;;
6928;SDS011;3504;52.616;13.238;2023-11-21T15:35:57;23.67;;;16.50;;
6928;SDS011;3504;52.616;13.238;2023-11-21T15:40:58;25.00;;;16.13;;
6928;SDS011;3504;52.616;13.238;2023-11-21T15:45:59;26.40;;;17.07;;
6928;SDS011;3504;52.616;13.238;2023-11-21T15:51:01;27.67;;;15.77;;
6928;SDS011;3504;52.616;13.238;2023-11-21T15:56:03;21.70;;;15.03;;
6928;SDS011;3504;52.616;13.238;2023-11-21T16:01:04;23.10;;;15.23;;
6928;SDS011;3504;52.616;13.238;2023-11-21T16:06:05;24.53;;;14.17;;
6928;SDS011;3504;52.616;13.238;2023-11-21T16:11:09;27.53;;;16.23;;
6928;SDS011;3504;52.616;13.238;2023-11-21T16:16:10;22.20;;;15.17;;
6928;SDS011;3504;52.616;13.238;2023-11-21T16:21:11;20.80;;;14.37;;
6928;SDS011;3504;52.616;13.238;2023-11-21T16:26:12;20.27;;;13.97;;
6928;SDS011;3504;52.616;13.238;2023-11-21T16:31:12;20.93;;;13.37;;
6928;SDS011;3504;52.616;13.238;2023-11-21T16:36:13;18.67;;;12.43;;
6928;SDS011;3504;52.616;13.238;2023-11-21T16:41:14;19.43;;;13.80;;
6928;SDS011;3504;52.616;13.238;2023-11-21T16:46:17;18.97;;;12.70;;
6928;SDS011;3504;52.616;13.238;2023-11-21T16:51:18;17.67;;;12.80;;
6928;SDS011;3504;52.616;13.238;2023-11-21T16:56:19;22.40;;;14.60;;
6928;SDS011;3504;52.616;13.238;2023-11-21T17:01:20;18.33;;;12.63;;
6928;SDS011;3504;52.616;13.238;2023-11-21T17:06:21;18.80;;;12.50;;
6928;SDS011;3504;52.616;13.238;2023-11-21T17:11:23;17.43;;;11.93;;
6928;SDS011;3504;52.616;13.238;2023-11-21T17:16:23;17.80;;;12.30;;
6928;SDS011;3504;52.616;13.238;2023-11-21T17:21:24;16.33;;;11.83;;
6928;SDS011;3504;52.616;13.238;2023-11-21T17:26:24;17.67;;;12.47;;
6928;SDS011;3504;52.616;13.238;2023-11-21T17:31:25;18.40;;;11.37;;
6928;SDS011;3504;52.616;13.238;2023-11-21T17:36:25;17.40;;;11.57;;
6928;SDS011;3504;52.616;13.238;2023-11-21T17:41:26;16.70;;;11.03;;
6928;SDS011;3504;52.616;13.238;2023-11-21T17:46:26;16.73;;;10.97;;
6928;SDS011;3504;52.616;13.238;2023-11-21T17:51:27;18.03;;;12.00;;
6928;SDS011;3504;52.616;13.238;2023-11-21T17:56:27;17.27;;;11.93;;
6928;SDS011;3504;52.616;13.238;2023-11-21T18:01:28;17.67;;;10.67;;
6928;SDS011;3504;52.616;13.238;2023-11-21T18:06:33;17.37;;;10.47;;
6928;SDS011;3504;52.616;13.238;2023-11-21T18:11:34;15.97;;;10.90;;
6928;SDS011;3504;52.616;13.238;2023-11-21T18:16:34;17.30;;;10.93;;
6928;SDS011;3504;52.616;13.238;2023-11-21T18:21:38;15.47;;;10.57;;
6928;SDS011;3504;52.616;13.238;2023-11-21T18:26:40;17.67;;;10.10;;
6928;SDS011;3504;52.616;13.238;2023-11-21T18:31:41;14.07;;;9.90;;
6928;SDS011;3504;52.616;13.238;2023-11-21T18:36:43;16.27;;;9.97;;
6928;SDS011;3504;52.616;13.238;2023-11-21T18:41:44;14.90;;;9.63;;
6928;SDS011;3504;52.616;13.238;2023-11-21T18:46:45;15.13;;;10.07;;
6928;SDS011;3504;52.616;13.238;2023-11-21T18:51:46;18.80;;;10.87;;
6928;SDS011;3504;52.616;13.238;2023-11-21T18:56:49;18.57;;;12.97;;
6928;SDS011;3504;52.616;13.238;2023-11-21T19:01:51;16.67;;;10.80;;
6928;SDS011;3504;52.616;13.238;2023-11-21T19:06:52;16.57;;;10.80;;
6928;SDS011;3504;52.616;13.238;2023-11-21T19:11:53;17.23;;;10.83;;
6928;SDS011;3504;52.616;13.238;2023-11-21T19:16:54;17.03;;;11.27;;
6928;SDS011;3504;52.616;13.238;2023-11-21T19:21:56;15.70;;;10.70;;
6928;SDS011;3504;52.616;13.238;2023-11-21T19:26:56;20.27;;;12.33;;
6928;SDS011;3504;52.616;13.238;2023-11-21T19:31:57;21.30;;;12.47;;
6928;SDS011;3504;52.616;13.238;2023-11-21T19:36:57;21.00;;;12.50;;
6928;SDS011;3504;52.616;13.238;2023-11-21T19:41:58;22.53;;;12.90;;
6928;SDS011;3504;52.616;13.238;2023-11-21T19:46:58;21.40;;;13.50;;
6928;SDS011;3504;52.616;13.238;2023-11-21T19:51:59;18.87;;;12.57;;
6928;SDS011;3504;52.616;13.238;2023-11-21T19:56:59;16.90;;;12.03;;
6928;SDS011;3504;52.616;13.238;2023-11-21T20:02:04;15.73;;;10.50;;
6928;SDS011;3504;52.616;13.238;2023-11-21T20:07:05;17.43;;;9.80;;
6928;SDS011;3504;52.616;13.238;2023-11-21T20:12:06;16.33;;;10.43;;
6928;SDS011;3504;52.616;13.238;2023-11-21T20:17:06;16.80;;;10.47;;
6928;SDS011;3504;52.616;13.238;2023-11-21T20:22:07;17.63;;;10.97;;
6928;SDS011;3504;52.616;13.238;2023-11-21T20:27:07;15.10;;;9.23;;
6928;SDS011;3504;52.616;13.238;2023-11-21T20:32:08;14.73;;;9.93;;
6928;SDS011;3504;52.616;13.238;2023-11-21T20:37:08;16.70;;;9.83;;
6928;SDS011;3504;52.616;13.238;2023-11-21T20:42:09;14.43;;;9.50;;
6928;SDS011;3504;52.616;13.238;2023-11-21T20:47:11;14.30;;;9.43;;
6928;SDS011;3504;52.616;13.238;2023-11-21T20:52:11;15.10;;;9.10;;
6928;SDS011;3504;52.616;13.238;2023-11-21T20:57:12;17.10;;;10.77;;
6928;SDS011;3504;52.616;13.238;2023-11-21T21:02:12;15.97;;;10.23;;
6928;SDS011;3504;52.616;13.238;2023-11-21T21:07:13;14.40;;;9.43;;
6928;SDS011;3504;52.616;13.238;2023-11-21T21:12:13;10.93;;;7.90;;
6928;SDS011;3504;52.616;13.238;2023-11-21T21:17:14;13.93;;;8.40;;
6928;SDS011;3504;52.616;13.238;2023-11-21T21:22:14;12.03;;;8.83;;
6928;SDS011;3504;52.616;13.238;2023-11-21T21:27:16;13.67;;;9.10;;
6928;SDS011;3504;52.616;13.238;2023-11-21T21:32:16;11.37;;;7.77;;
6928;SDS011;3504;52.616;13.238;2023-11-21T21:37:17;11.40;;;7.87;;
6928;SDS011;3504;52.616;13.238;2023-11-21T21:42:17;11.63;;;7.63;;
6928;SDS011;3504;52.616;13.238;2023-11-21T21:47:18;9.87;;;7.00;;
6928;SDS011;3504;52.616;13.238;2023-11-21T21:52:18;11.70;;;6.73;;
6928;SDS011;3504;52.616;13.238;2023-11-21T21:57:19;9.60;;;6.47;;
6928;SDS011;3504;52.616;13.238;2023-11-21T22:02:20;11.33;;;7.10;;
6928;SDS011;3504;52.616;13.238;2023-11-21T22:07:21;10.70;;;6.73;;
6928;SDS011;3504;52.616;13.238;2023-11-21T22:12:22;9.13;;;7.00;;
6928;SDS011;3504;52.616;13.238;2023-11-21T22:17:22;9.80;;;6.83;;
6928;SDS011;3504;52.616;13.238;2023-11-21T22:22:23;10.90;;;7.40;;
6928;SDS011;3504;52.616;13.238;2023-11-21T22:27:23;10.90;;;6.97;;
6928;SDS011;3504;52.616;13.238;2023-11-21T22:32:24;10.40;;;7.03;;
6928;SDS011;3504;52.616;13.238;2023-11-21T22:37:24;8.43;;;6.43;;
6928;SDS011;3504;52.616;13.238;2023-11-21T22:42:25;9.73;;;6.00;;
6928;SDS011;3504;52.616;13.238;2023-11-21T22:47:25;8.70;;;6.37;;
6928;SDS011;3504;52.616;13.238;2023-11-21T22:52:26;10.23;;;6.63;;
6928;SDS011;3504;52.616;13.238;2023-11-21T22:57:26;10.47;;;6.80;;
6928;SDS011;3504;52.616;13.238;2023-11-21T23:02:27;11.30;;;7.37;;
6928;SDS011;3504;52.616;13.238;2023-11-21T23:07:27;9.23;;;6.50;;
6928;SDS011;3504;52.616;13.238;2023-11-21T23:12:28;10.67;;;7.00;;
6928;SDS011;3504;52.616;13.238;2023-11-21T23:17:28;11.07;;;6.93;;
6928;SDS011;3504;52.616;13.238;2023-11-21T23:22:29;11.23;;;7.47;;
6928;SDS011;3504;52.616;13.238;2023-11-21T23:27:32;11.73;;;7.13;;
6928;SDS011;3504;52.616;13.238;2023-11-21T23:32:32;9.47;;;6.73;;
6928;SDS011;3504;52.616;13.238;2023-11-21T23:37:33;9.50;;;6.97;;
6928;SDS011;3504;52.616;13.238;2023-11-21T23:42:34;10.03;;;6.93;;
6928;SDS011;3504;52.616;13.238;2023-11-21T23:47:35;9.73;;;7.13;;
6928;SDS011;3504;52.616;13.238;2023-11-21T23:52:35;10.90;;;7.73;;
6928;SDS011;3504;52.616;13.238;2023-11-21T23:57:36;10.67;;;7.30;;
